createdAt,value
2023-04-15T00:00:43.169Z,6.5
2023-04-15T00:01:56.266Z,6.5
2023-04-15T00:03:09.326Z,6.5
2023-04-15T00:04:22.239Z,6.5
2023-04-15T00:05:35.277Z,6.5
2023-04-15T00:06:48.149Z,6.5
2023-04-15T00:08:01.199Z,6.5
2023-04-15T00:09:14.180Z,6.5
2023-04-15T00:10:27.128Z,6.5
2023-04-15T00:11:40.203Z,6.5
2023-04-15T00:12:53.197Z,6.4
2023-04-15T00:14:06.256Z,6.4
2023-04-15T00:15:19.195Z,6.4
2023-04-15T00:16:32.204Z,6.4
2023-04-15T00:17:45.227Z,6.5
2023-04-15T00:18:58.376Z,6.6
2023-04-15T00:20:11.181Z,6.6
2023-04-15T00:21:24.169Z,6.5
2023-04-15T00:22:37.154Z,6.6
2023-04-15T00:23:50.181Z,6.5
2023-04-15T00:25:03.211Z,6.4
2023-04-15T00:26:16.176Z,6.4
2023-04-15T00:27:29.194Z,6.4
2023-04-15T00:28:42.136Z,6.4
2023-04-15T00:29:55.357Z,6.6
2023-04-15T00:31:08.248Z,6.6
2023-04-15T00:32:21.754Z,6.5
2023-04-15T00:33:34.175Z,6.4
2023-04-15T00:34:47.138Z,6.4
2023-04-15T00:36:00.279Z,6.5
2023-04-15T00:37:13.201Z,6.5
2023-04-15T00:38:26.177Z,6.4
2023-04-15T00:39:39.068Z,6.6
2023-04-15T00:40:52.379Z,6.6
2023-04-15T00:42:05.194Z,6.6
2023-04-15T00:43:18.184Z,6.6
2023-04-15T00:44:31.372Z,6.6
2023-04-15T00:45:44.198Z,6.6
2023-04-15T00:46:57.163Z,6.6
2023-04-15T00:48:10.151Z,6.6
2023-04-15T00:49:23.184Z,6.6
2023-04-15T00:50:36.225Z,6.6
2023-04-15T00:51:49.126Z,6.6
2023-04-15T00:53:02.206Z,6.6
2023-04-15T00:54:15.190Z,6.6
2023-04-15T00:55:28.223Z,6.6
2023-04-15T00:56:41.069Z,6.6
2023-04-15T00:57:54.094Z,6.4
2023-04-15T00:59:07.072Z,6.4
2023-04-15T01:00:20.272Z,6.4
2023-04-15T01:01:33.164Z,6.5
2023-04-15T01:02:46.213Z,6.6
2023-04-15T01:03:59.193Z,6.6
2023-04-15T01:05:12.106Z,6.5
2023-04-15T01:06:25.115Z,6.4
2023-04-15T01:07:38.113Z,6.5
2023-04-15T01:08:51.282Z,6.6
2023-04-15T01:10:04.102Z,6.4
2023-04-15T01:11:17.092Z,6.6
2023-04-15T01:12:30.279Z,6.6
2023-04-15T01:13:43.114Z,6.6
2023-04-15T01:14:56.164Z,6.6
2023-04-15T01:16:09.186Z,6.5
2023-04-15T01:17:22.149Z,6.4
2023-04-15T01:18:35.188Z,6.4
2023-04-15T01:19:48.111Z,6.4
2023-04-15T01:21:01.124Z,6.4
2023-04-15T01:22:14.236Z,6.6
2023-04-15T01:23:27.086Z,6.6
2023-04-15T01:24:40.169Z,6.6
2023-04-15T01:25:53.092Z,6.4
2023-04-15T01:27:06.104Z,6.5
2023-04-15T01:28:19.113Z,6.5
2023-04-15T01:29:32.128Z,6.5
2023-04-15T01:30:45.093Z,6.4
2023-04-15T01:31:58.314Z,6.5
2023-04-15T01:33:11.128Z,6.5
2023-04-15T01:34:24.123Z,6.5
2023-04-15T01:35:37.112Z,6.5
2023-04-15T01:36:50.183Z,6.3
2023-04-15T01:38:03.032Z,6.3
2023-04-15T01:39:16.148Z,6.3
2023-04-15T01:40:29.123Z,6.3
2023-04-15T01:41:42.109Z,6.3
2023-04-15T01:42:55.133Z,6.3
2023-04-15T01:44:08.160Z,6.3
2023-04-15T01:45:20.827Z,6.3
2023-04-15T01:46:34.164Z,6.3
2023-04-15T01:47:47.134Z,6.3
2023-04-15T01:49:00.299Z,6.3
2023-04-15T01:50:13.121Z,6.2
2023-04-15T01:51:26.220Z,6.2
2023-04-15T01:52:39.148Z,6.1
2023-04-15T01:53:52.286Z,6.1
2023-04-15T01:55:05.148Z,6.1
2023-04-15T01:56:18.123Z,5.9
2023-04-15T01:57:31.136Z,5.9
2023-04-15T01:58:44.149Z,5.9
2023-04-15T01:59:57.281Z,5.8
2023-04-15T02:01:10.166Z,5.8
2023-04-15T02:02:23.159Z,5.7
2023-04-15T02:03:36.202Z,5.7
2023-04-15T02:04:49.267Z,5.7
2023-04-15T02:06:02.143Z,5.7
2023-04-15T02:07:15.137Z,5.7
2023-04-15T02:08:28.127Z,5.7
2023-04-15T02:09:41.136Z,5.7
2023-04-15T02:10:54.300Z,5.6
2023-04-15T02:12:07.122Z,5.5
2023-04-15T02:13:20.155Z,5.4
2023-04-15T02:14:33.154Z,5.4
2023-04-15T02:15:46.173Z,5.3
2023-04-15T02:16:59.140Z,5.3
2023-04-15T02:18:12.134Z,5.3
2023-04-15T02:19:25.153Z,5.3
2023-04-15T02:20:38.166Z,5.3
2023-04-15T02:21:51.200Z,5.2
2023-04-15T02:23:04.155Z,5.2
2023-04-15T02:24:17.121Z,5.2
2023-04-15T02:25:30.659Z,5.2
2023-04-15T02:26:43.136Z,5.1
2023-04-15T02:27:56.190Z,5
2023-04-15T02:29:08.856Z,5
2023-04-15T02:30:22.127Z,4.9
2023-04-15T02:31:35.253Z,4.9
2023-04-15T02:32:48.150Z,4.8
2023-04-15T02:34:01.136Z,4.8
2023-04-15T02:35:14.156Z,4.7
2023-04-15T02:36:27.308Z,4.7
2023-04-15T02:37:40.171Z,4.7
2023-04-15T02:38:53.134Z,4.6
2023-04-15T02:40:06.179Z,4.6
2023-04-15T02:41:19.171Z,4.5
2023-04-15T02:42:32.123Z,4.4
2023-04-15T02:43:45.166Z,4.4
2023-04-15T02:44:58.127Z,4.4
2023-04-15T02:46:11.434Z,4.3
2023-04-15T02:47:24.199Z,4.3
2023-04-15T02:48:37.155Z,4.3
2023-04-15T02:49:50.139Z,4.3
2023-04-15T02:51:03.152Z,4.3
2023-04-15T02:52:16.158Z,4.3
2023-04-15T02:53:29.141Z,4.3
2023-04-15T02:54:42.095Z,4.2
2023-04-15T02:55:55.223Z,4.2
2023-04-15T02:57:08.155Z,4.2
2023-04-15T02:58:21.190Z,4.2
2023-04-15T02:59:34.223Z,4.2
2023-04-15T03:00:47.126Z,4.2
2023-04-15T03:02:00.301Z,4.2
2023-04-15T03:03:13.230Z,4.1
2023-04-15T03:04:26.200Z,4.1
2023-04-15T03:05:39.196Z,4.1
2023-04-15T03:06:52.128Z,4.1
2023-04-15T03:08:05.186Z,4
2023-04-15T03:09:18.159Z,4
2023-04-15T03:10:31.222Z,3.9
2023-04-15T03:11:44.153Z,3.8
2023-04-15T03:12:57.215Z,3.8
2023-04-15T03:14:10.050Z,3.8
2023-04-15T03:15:23.241Z,3.8
2023-04-15T03:16:36.165Z,3.7
2023-04-15T03:17:49.223Z,3.7
2023-04-15T03:19:02.284Z,3.7
2023-04-15T03:20:15.246Z,3.7
2023-04-15T03:21:28.197Z,3.7
2023-04-15T03:22:41.238Z,3.7
2023-04-15T03:23:54.180Z,3.7
2023-04-15T03:25:07.173Z,3.6
2023-04-15T03:26:20.336Z,3.6
2023-04-15T03:27:33.050Z,3.6
2023-04-15T03:28:46.222Z,3.6
2023-04-15T03:29:59.169Z,3.6
2023-04-15T03:31:12.208Z,3.4
2023-04-15T03:32:25.204Z,3.4
2023-04-15T03:33:38.070Z,3.4
2023-04-15T03:34:51.274Z,3.4
2023-04-15T03:36:04.276Z,3.4
2023-04-15T03:37:17.313Z,3.3
2023-04-15T03:38:30.311Z,3.3
2023-04-15T03:39:43.186Z,3.3
2023-04-15T03:40:56.186Z,3.3
2023-04-15T03:42:09.365Z,3.3
2023-04-15T03:43:22.223Z,3.3
2023-04-15T03:44:35.114Z,3.2
2023-04-15T03:45:48.215Z,3.2
2023-04-15T03:47:01.419Z,3.2
2023-04-15T03:48:17.563Z,3.2
2023-04-15T03:49:27.393Z,3.2
2023-04-15T03:50:40.227Z,3.2
2023-04-15T03:51:53.234Z,3.2
2023-04-15T03:53:06.486Z,3.2
2023-04-15T03:54:19.267Z,3.2
2023-04-15T03:55:32.243Z,3.2
2023-04-15T03:56:45.236Z,3.2
2023-04-15T03:57:58.229Z,3.2
2023-04-15T03:59:10.908Z,3.2
2023-04-15T04:00:24.678Z,3.2
2023-04-15T04:01:37.264Z,3.2
2023-04-15T04:02:50.413Z,3.2
2023-04-15T04:04:03.319Z,3.2
2023-04-15T04:05:16.259Z,3.2
2023-04-15T04:06:29.262Z,3.2
2023-04-15T04:07:42.216Z,3.1
2023-04-15T04:08:55.251Z,3.1
2023-04-15T04:10:08.225Z,3.1
2023-04-15T04:11:21.423Z,3.2
2023-04-15T04:12:34.267Z,3.2
2023-04-15T04:13:47.208Z,3.2
2023-04-15T04:15:00.345Z,3.2
2023-04-15T04:16:13.384Z,3.3
2023-04-15T04:17:26.308Z,3.3
2023-04-15T04:18:39.109Z,3.3
2023-04-15T04:19:52.192Z,3.3
2023-04-15T04:21:05.433Z,3.2
2023-04-15T04:22:18.286Z,3.2
2023-04-15T04:23:31.368Z,3.2
2023-04-15T04:24:44.262Z,3.2
2023-04-15T04:25:57.273Z,3.2
2023-04-15T04:27:10.255Z,3.2
2023-04-15T04:28:23.265Z,3.2
2023-04-15T04:29:36.320Z,3.1
2023-04-15T04:30:49.419Z,3.1
2023-04-15T04:32:02.431Z,3.1
2023-04-15T04:33:15.264Z,3.1
2023-04-15T04:34:28.599Z,3.1
2023-04-15T04:35:41.266Z,2.9
2023-04-15T04:36:54.252Z,2.9
2023-04-15T04:38:07.265Z,2.9
2023-04-15T04:39:20.140Z,2.9
2023-04-15T04:40:33.279Z,2.9
2023-04-15T04:41:46.287Z,2.9
2023-04-15T04:42:59.400Z,2.9
2023-04-15T04:44:12.272Z,2.9
2023-04-15T04:45:25.301Z,2.9
2023-04-15T04:46:38.276Z,2.9
2023-04-15T04:47:51.315Z,2.8
2023-04-15T04:49:04.479Z,2.8
2023-04-15T04:50:17.265Z,2.9
2023-04-15T04:51:30.271Z,2.9
2023-04-15T04:52:43.427Z,2.8
2023-04-15T04:53:56.390Z,2.9
2023-04-15T04:55:09.377Z,2.8
2023-04-15T04:56:22.426Z,2.9
2023-04-15T04:57:35.391Z,2.8
2023-04-15T04:58:48.252Z,2.8
2023-04-15T05:00:01.245Z,2.8
2023-04-15T05:01:14.294Z,2.9
2023-04-15T05:02:27.473Z,2.9
2023-04-15T05:03:40.513Z,2.9
2023-04-15T05:04:53.273Z,2.9
2023-04-15T05:06:06.314Z,2.9
2023-04-15T05:07:19.276Z,2.9
2023-04-15T05:08:32.312Z,2.9
2023-04-15T05:09:45.315Z,2.9
2023-04-15T05:10:58.326Z,2.9
2023-04-15T05:12:11.493Z,2.9
2023-04-15T05:13:24.328Z,2.9
2023-04-15T05:14:37.460Z,2.9
2023-04-15T05:15:50.271Z,2.9
2023-04-15T05:17:03.297Z,2.9
2023-04-15T05:18:16.114Z,2.9
2023-04-15T05:19:29.617Z,2.9
2023-04-15T05:20:42.243Z,2.9
2023-04-15T05:21:54.943Z,2.9
2023-04-15T05:23:08.245Z,2.9
2023-04-15T05:24:21.228Z,2.9
2023-04-15T05:25:34.244Z,2.9
2023-04-15T05:26:47.246Z,3.1
2023-04-15T05:28:00.300Z,3.1
2023-04-15T05:29:13.252Z,3.1
2023-04-15T05:30:26.497Z,3.1
2023-04-15T05:31:39.359Z,3.1
2023-04-15T05:32:52.256Z,3.2
2023-04-15T05:34:05.232Z,3.2
2023-04-15T05:35:18.383Z,3.3
2023-04-15T05:36:31.387Z,3.3
2023-04-15T05:37:44.148Z,3.4
2023-04-15T05:38:57.236Z,3.6
2023-04-15T05:40:10.195Z,3.7
2023-04-15T05:41:23.201Z,3.8
2023-04-15T05:42:36.218Z,4
2023-04-15T05:43:49.269Z,4
2023-04-15T05:45:02.200Z,4.1
2023-04-15T05:46:15.311Z,4.3
2023-04-15T05:47:28.115Z,4.4
2023-04-15T05:48:41.218Z,4.6
2023-04-15T05:49:54.303Z,4.7
2023-04-15T05:51:07.399Z,4.8
2023-04-15T05:52:20.292Z,4.9
2023-04-15T05:53:33.417Z,5
2023-04-15T05:54:46.220Z,5.2
2023-04-15T05:55:59.157Z,5.3
2023-04-15T05:57:12.767Z,5.4
2023-04-15T05:58:25.254Z,5.6
2023-04-15T05:59:38.311Z,5.7
2023-04-15T06:00:51.287Z,5.8
2023-04-15T06:02:04.276Z,5.8
2023-04-15T06:03:17.472Z,6.1
2023-04-15T06:04:30.386Z,6.1
2023-04-15T06:05:43.291Z,6.3
2023-04-15T06:06:56.464Z,6.4
2023-04-15T06:08:09.131Z,6.6
2023-04-15T06:09:22.293Z,6.7
2023-04-15T06:10:35.359Z,6.9
2023-04-15T06:11:48.268Z,7
2023-04-15T06:13:00.959Z,7.1
2023-04-15T06:14:14.361Z,7.1
2023-04-15T06:15:27.457Z,7.2
2023-04-15T06:16:40.309Z,7.4
2023-04-15T06:17:53.282Z,7.4
2023-04-15T06:19:06.301Z,7.5
2023-04-15T06:20:19.306Z,7.6
2023-04-15T06:21:32.305Z,7.6
2023-04-15T06:22:45.276Z,7.8
2023-04-15T06:23:58.257Z,7.8
2023-04-15T06:25:11.284Z,7.9
2023-04-15T06:26:24.265Z,8.1
2023-04-15T06:27:37.275Z,8.1
2023-04-15T06:28:50.274Z,8.2
2023-04-15T06:30:03.271Z,8.2
2023-04-15T06:31:16.302Z,8.3
2023-04-15T06:32:29.272Z,8.4
2023-04-15T06:33:42.464Z,8.5
2023-04-15T06:34:55.264Z,8.6
2023-04-15T06:36:08.282Z,8.7
2023-04-15T06:37:21.294Z,8.7
2023-04-15T06:38:34.331Z,8.8
2023-04-15T06:39:47.254Z,8.8
2023-04-15T06:41:00.470Z,8.9
2023-04-15T06:42:13.256Z,9.1
2023-04-15T06:43:26.283Z,9.2
2023-04-15T06:44:39.266Z,9.3
2023-04-15T06:45:52.311Z,9.3
2023-04-15T06:47:05.337Z,9.5
2023-04-15T06:48:18.257Z,9.6
2023-04-15T06:49:31.313Z,9.6
2023-04-15T06:50:44.289Z,9.7
2023-04-15T06:51:57.283Z,9.9
2023-04-15T06:53:10.290Z,9.9
2023-04-15T06:54:23.158Z,10.1
2023-04-15T06:55:36.305Z,10.3
2023-04-15T06:56:49.312Z,10.2
2023-04-15T06:58:02.268Z,10.3
2023-04-15T06:59:15.493Z,10.4
2023-04-15T07:00:28.469Z,10.4
2023-04-15T07:01:41.286Z,10.4
2023-04-15T07:02:54.317Z,10.4
2023-04-15T07:04:07.269Z,10.6
2023-04-15T07:05:20.372Z,10.6
2023-04-15T07:06:33.289Z,10.6
2023-04-15T07:07:46.270Z,10.7
2023-04-15T07:08:59.263Z,10.7
2023-04-15T07:10:12.528Z,10.7
2023-04-15T07:11:25.284Z,10.7
2023-04-15T07:12:38.241Z,10.8
2023-04-15T07:13:51.316Z,10.8
2023-04-15T07:15:04.379Z,10.8
2023-04-15T07:16:17.280Z,10.7
2023-04-15T07:17:30.363Z,10.8
2023-04-15T07:18:43.322Z,10.8
2023-04-15T07:19:56.305Z,10.8
2023-04-15T07:21:09.333Z,10.8
2023-04-15T07:22:22.280Z,10.8
2023-04-15T07:23:35.305Z,10.8
2023-04-15T07:24:48.262Z,10.9
2023-04-15T07:26:01.316Z,11
2023-04-15T07:27:14.441Z,10.9
2023-04-15T07:28:27.317Z,11
2023-04-15T07:29:40.348Z,11.1
2023-04-15T07:30:53.326Z,11.1
2023-04-15T07:32:06.306Z,11.1
2023-04-15T07:33:19.274Z,11.1
2023-04-15T07:34:32.702Z,11.2
2023-04-15T07:35:45.447Z,11.2
2023-04-15T07:36:58.343Z,11.3
2023-04-15T07:38:11.476Z,11.3
2023-04-15T07:39:24.309Z,11.3
2023-04-15T07:40:37.239Z,11.3
2023-04-15T07:41:50.277Z,11.3
2023-04-15T07:43:03.327Z,11.2
2023-04-15T07:44:16.295Z,11.2
2023-04-15T07:45:29.263Z,11.2
2023-04-15T07:46:42.275Z,11.2
2023-04-15T07:47:55.774Z,11.2
2023-04-15T07:49:08.318Z,11.3
2023-04-15T07:50:21.291Z,11.3
2023-04-15T07:51:34.283Z,11.3
2023-04-15T07:52:47.236Z,11.3
2023-04-15T07:54:00.363Z,11.2
2023-04-15T07:55:13.338Z,11.2
2023-04-15T07:56:26.288Z,11.3
2023-04-15T07:57:39.322Z,11.3
2023-04-15T07:58:52.267Z,11.3
2023-04-15T08:00:05.305Z,11.2
2023-04-15T08:01:18.301Z,11.3
2023-04-15T08:02:31.318Z,11.3
2023-04-15T08:03:44.448Z,11.3
2023-04-15T08:04:57.350Z,11.2
2023-04-15T08:06:10.299Z,11.2
2023-04-15T08:07:23.257Z,11.2
2023-04-15T08:08:36.307Z,11.3
2023-04-15T08:09:49.317Z,11.3
2023-04-15T08:11:02.283Z,11.2
2023-04-15T08:12:15.319Z,11.2
2023-04-15T08:13:28.258Z,11.2
2023-04-15T08:14:41.257Z,11.2
2023-04-15T08:15:54.378Z,11.2
2023-04-15T08:17:07.325Z,11.2
2023-04-15T08:18:20.219Z,11.2
2023-04-15T08:19:33.276Z,11.2
2023-04-15T08:20:46.308Z,11.3
2023-04-15T08:21:59.267Z,11.3
2023-04-15T08:23:12.272Z,11.2
2023-04-15T08:24:25.276Z,11.2
2023-04-15T08:25:38.350Z,11.2
2023-04-15T08:26:51.270Z,11.2
2023-04-15T08:28:04.298Z,11.2
2023-04-15T08:29:17.256Z,11.2
2023-04-15T08:30:30.286Z,11.2
2023-04-15T08:31:43.299Z,11.1
2023-04-15T08:32:56.312Z,11.2
2023-04-15T08:34:09.311Z,11.2
2023-04-15T08:35:22.312Z,11.2
2023-04-15T08:36:35.354Z,11.2
2023-04-15T08:37:48.315Z,11.2
2023-04-15T08:39:01.626Z,11.3
2023-04-15T08:40:14.327Z,11.3
2023-04-15T08:41:27.302Z,11.3
2023-04-15T08:42:40.775Z,11.3
2023-04-15T08:43:53.291Z,11.3
2023-04-15T08:45:06.240Z,11.3
2023-04-15T08:46:19.405Z,11.3
2023-04-15T08:47:32.254Z,11.3
2023-04-15T08:48:45.414Z,11.3
2023-04-15T08:49:58.318Z,11.3
2023-04-15T08:51:11.318Z,11.3
2023-04-15T08:52:24.299Z,11.2
2023-04-15T08:53:37.284Z,11.2
2023-04-15T08:54:50.299Z,11.2
2023-04-15T08:56:03.417Z,11.3
2023-04-15T08:57:16.261Z,11.3
2023-04-15T08:58:29.257Z,11.3
2023-04-15T08:59:42.229Z,11.3
2023-04-15T09:00:55.349Z,11.3
2023-04-15T09:02:08.318Z,11.3
2023-04-15T09:03:21.361Z,11.3
2023-04-15T09:04:34.283Z,11.3
2023-04-15T09:05:47.385Z,11.3
2023-04-15T09:07:00.228Z,11.3
2023-04-15T09:08:13.341Z,11.3
2023-04-15T09:09:26.204Z,11.3
2023-04-15T09:10:39.296Z,11.4
2023-04-15T09:11:52.333Z,11.5
2023-04-15T09:13:05.318Z,11.5
2023-04-15T09:14:18.303Z,11.5
2023-04-15T09:15:31.324Z,11.5
2023-04-15T09:16:44.357Z,11.5
2023-04-15T09:17:57.374Z,11.5
2023-04-15T09:19:10.318Z,11.5
2023-04-15T09:20:23.314Z,11.5
2023-04-15T09:21:36.322Z,11.5
2023-04-15T09:22:49.289Z,11.6
2023-04-15T09:24:02.422Z,11.6
2023-04-15T09:25:15.355Z,11.6
2023-04-15T09:26:28.302Z,11.7
2023-04-15T09:27:41.301Z,11.7
2023-04-15T09:28:54.329Z,11.7
2023-04-15T09:30:07.278Z,11.7
2023-04-15T09:31:20.500Z,11.7
2023-04-15T09:32:33.507Z,11.7
2023-04-15T09:33:46.342Z,11.7
2023-04-15T09:34:59.330Z,11.7
2023-04-15T09:36:12.294Z,11.7
2023-04-15T09:37:31.931Z,11.7
2023-04-15T09:38:38.334Z,11.7
2023-04-15T09:39:51.305Z,11.7
2023-04-15T09:41:04.309Z,11.7
2023-04-15T09:42:17.264Z,11.9
2023-04-15T09:43:30.295Z,11.9
2023-04-15T09:44:43.337Z,12
2023-04-15T09:45:56.600Z,12.1
2023-04-15T09:47:09.316Z,12.2
2023-04-15T09:48:22.394Z,12.2
2023-04-15T09:49:35.457Z,12.2
2023-04-15T09:50:48.347Z,12.3
2023-04-15T09:52:05.446Z,12.2
2023-04-15T09:53:14.321Z,12.3
2023-04-15T09:54:27.354Z,12.2
2023-04-15T09:55:40.287Z,12.4
2023-04-15T09:56:53.348Z,12.4
2023-04-15T09:58:06.980Z,12.4
2023-04-15T09:59:20.154Z,12.6
2023-04-15T10:00:32.314Z,12.6
2023-04-15T10:01:45.514Z,12.7
2023-04-15T10:02:58.403Z,12.7
2023-04-15T10:04:11.364Z,12.7
2023-04-15T10:05:24.328Z,12.8
2023-04-15T10:06:37.332Z,12.9
2023-04-15T10:07:50.712Z,12.9
2023-04-15T10:09:03.350Z,12.9
2023-04-15T10:10:16.496Z,12.9
2023-04-15T10:11:31.140Z,12.9
2023-04-15T10:12:42.324Z,12.9
2023-04-15T10:13:55.246Z,12.9
2023-04-15T10:15:08.326Z,13.1
2023-04-15T10:16:21.481Z,13.1
2023-04-15T10:17:34.388Z,13.1
2023-04-15T10:20:00.320Z,13.1
2023-04-15T10:21:13.325Z,13.1
2023-04-15T10:22:26.495Z,13.1
2023-04-15T10:23:39.318Z,13.1
2023-04-15T10:24:52.346Z,12.9
2023-04-15T10:26:05.394Z,12.9
2023-04-15T10:27:18.326Z,13.1
2023-04-15T10:28:31.358Z,12.9
2023-04-15T10:29:44.387Z,12.9
2023-04-15T10:30:57.487Z,12.9
2023-04-15T10:32:10.331Z,12.9
2023-04-15T10:33:23.315Z,12.9
2023-04-15T10:34:36.342Z,12.9
2023-04-15T10:35:49.299Z,12.9
2023-04-15T10:37:02.351Z,12.9
2023-04-15T10:38:15.335Z,12.9
2023-04-15T10:39:28.335Z,12.9
2023-04-15T10:40:41.413Z,12.9
2023-04-15T10:41:54.454Z,12.9
2023-04-15T10:43:07.293Z,12.9
2023-04-15T10:44:20.327Z,12.9
2023-04-15T10:45:33.506Z,13
2023-04-15T10:46:46.405Z,13.1
2023-04-15T10:48:00.463Z,12.9
2023-04-15T10:49:12.330Z,12.9
2023-04-15T10:50:25.345Z,12.9
2023-04-15T10:51:38.337Z,12.8
2023-04-15T10:52:51.332Z,12.8
2023-04-15T10:54:04.500Z,12.7
2023-04-15T10:55:17.282Z,12.7
2023-04-15T10:56:30.330Z,12.7
2023-04-15T10:57:43.353Z,12.7
2023-04-15T10:58:56.524Z,12.7
2023-04-15T11:00:09.336Z,12.7
2023-04-15T11:01:22.287Z,12.6
2023-04-15T11:02:35.430Z,12.6
2023-04-15T11:03:48.506Z,12.6
2023-04-15T11:05:01.389Z,12.4
2023-04-15T11:06:14.359Z,12.4
2023-04-15T11:07:27.313Z,12.2
2023-04-15T11:08:40.328Z,12.3
2023-04-15T11:09:53.338Z,12.3
2023-04-15T11:11:06.342Z,12.3
2023-04-15T11:12:19.314Z,12.3
2023-04-15T11:13:32.339Z,12.3
2023-04-15T11:14:45.294Z,12.3
2023-04-15T11:15:58.482Z,12.2
2023-04-15T11:17:11.457Z,12.2
2023-04-15T11:18:24.392Z,12.3
2023-04-15T11:19:37.315Z,12.3
2023-04-15T11:20:50.348Z,12.2
2023-04-15T11:22:03.333Z,12.2
2023-04-15T11:23:16.327Z,12.2
2023-04-15T11:24:29.359Z,12.2
2023-04-15T11:25:42.340Z,12.2
2023-04-15T11:26:55.369Z,12.2
2023-04-15T11:28:08.688Z,12.2
2023-04-15T11:29:21.333Z,12.2
2023-04-15T11:30:34.346Z,12.2
2023-04-15T11:31:47.319Z,12.2
2023-04-15T11:33:00.374Z,12.2
2023-04-15T11:34:13.509Z,12.2
2023-04-15T11:35:26.513Z,12.2
2023-04-15T11:36:39.345Z,12.2
2023-04-15T11:37:52.341Z,12.2
2023-04-15T11:39:05.347Z,12.1
2023-04-15T11:40:18.332Z,12
2023-04-15T11:41:31.446Z,12
2023-04-15T11:42:49.780Z,12
2023-04-15T11:43:57.381Z,12
2023-04-15T11:45:10.566Z,12
2023-04-15T11:46:23.332Z,12
2023-04-15T11:47:36.563Z,12.1
2023-04-15T11:48:49.328Z,11.9
2023-04-15T11:50:02.333Z,11.9
2023-04-15T11:51:15.329Z,11.9
2023-04-15T11:52:28.376Z,11.9
2023-04-15T11:53:41.377Z,11.9
2023-04-15T11:54:54.339Z,11.9
2023-04-15T11:56:07.388Z,11.9
2023-04-15T11:57:20.353Z,11.7
2023-04-15T11:58:33.345Z,11.7
2023-04-15T11:59:46.453Z,11.7
2023-04-15T12:00:59.328Z,11.7
2023-04-15T12:02:12.410Z,11.7
2023-04-15T12:03:25.475Z,11.7
2023-04-15T12:04:38.118Z,11.7
2023-04-15T12:05:51.348Z,11.7
2023-04-15T12:07:04.497Z,11.7
2023-04-15T12:08:17.306Z,11.6
2023-04-15T12:09:32.032Z,11.6
2023-04-15T12:10:43.364Z,11.6
2023-04-15T12:11:56.364Z,11.6
2023-04-15T12:13:10.082Z,11.6
2023-04-15T12:14:22.475Z,11.6
2023-04-15T12:15:35.464Z,11.6
2023-04-15T12:16:49.894Z,11.6
2023-04-15T12:18:01.387Z,11.6
2023-04-15T12:19:14.365Z,11.6
2023-04-15T12:20:27.308Z,11.6
2023-04-15T12:21:40.526Z,11.6
2023-04-15T12:22:53.333Z,11.6
2023-04-15T12:24:06.558Z,11.6
2023-04-15T12:25:19.469Z,11.6
2023-04-15T12:26:32.328Z,11.6
2023-04-15T12:27:45.342Z,11.6
2023-04-15T12:28:58.328Z,11.5
2023-04-15T12:30:11.407Z,11.5
2023-04-15T12:31:24.372Z,11.5
2023-04-15T12:32:37.405Z,11.5
2023-04-15T12:33:50.321Z,11.5
2023-04-15T12:35:03.293Z,11.5
2023-04-15T12:36:16.353Z,11.5
2023-04-15T12:37:29.319Z,11.3
2023-04-15T12:38:42.303Z,11.3
2023-04-15T12:39:55.370Z,11.4
2023-04-15T12:41:08.483Z,11.4
2023-04-15T12:42:21.414Z,11.4
2023-04-15T12:43:34.450Z,11.4
2023-04-15T12:44:47.313Z,11.3
2023-04-15T12:46:00.397Z,11.2
2023-04-15T12:47:13.331Z,11.2
2023-04-15T12:48:26.328Z,11.2
2023-04-15T12:49:39.374Z,11.2
2023-04-15T12:50:52.353Z,11.1
2023-04-15T12:52:05.439Z,11.1
2023-04-15T12:53:18.331Z,11.1
2023-04-15T12:54:31.352Z,11.1
2023-04-15T12:55:44.312Z,11.1
2023-04-15T12:56:57.327Z,11.1
2023-04-15T12:58:10.377Z,11.1
2023-04-15T12:59:23.370Z,11
2023-04-15T13:00:36.371Z,11
2023-04-15T13:01:49.490Z,11
2023-04-15T13:03:03.467Z,11
2023-04-15T13:04:15.413Z,11
2023-04-15T13:05:28.751Z,11
2023-04-15T13:06:42.010Z,10.8
2023-04-15T13:07:54.397Z,10.8
2023-04-15T13:09:07.370Z,10.8
2023-04-15T13:10:20.398Z,10.8
2023-04-15T13:11:33.378Z,10.8
2023-04-15T13:12:46.483Z,10.8
2023-04-15T13:13:59.253Z,10.8
2023-04-15T13:15:12.545Z,10.8
2023-04-15T13:16:25.411Z,10.8
2023-04-15T13:17:38.996Z,11
2023-04-15T13:18:51.385Z,11
2023-04-15T13:20:04.236Z,11
2023-04-15T13:21:17.327Z,11
2023-04-15T13:22:31.060Z,11
2023-04-15T13:23:43.037Z,11
2023-04-15T13:24:56.333Z,11
2023-04-15T13:26:09.331Z,11
2023-04-15T13:27:22.335Z,11
2023-04-15T13:28:35.345Z,11
2023-04-15T13:29:48.714Z,11
2023-04-15T13:31:01.349Z,11
2023-04-15T13:32:14.356Z,11.1
2023-04-15T13:33:27.297Z,11.1
2023-04-15T13:34:40.338Z,11.1
2023-04-15T13:35:53.324Z,11.1
2023-04-15T13:37:06.350Z,11.1
2023-04-15T13:38:19.359Z,11.1
2023-04-15T13:39:32.367Z,11.1
2023-04-15T13:40:45.355Z,11.1
2023-04-15T13:41:58.359Z,11.1
2023-04-15T13:43:11.041Z,11
2023-04-15T13:44:24.369Z,11
2023-04-15T13:45:38.071Z,11
2023-04-15T13:46:50.353Z,11
2023-04-15T13:48:03.351Z,11.1
2023-04-15T13:49:16.386Z,11.1
2023-04-15T13:50:29.334Z,11.1
2023-04-15T13:51:42.317Z,11.1
2023-04-15T13:52:55.408Z,11
2023-04-15T13:54:08.359Z,11
2023-04-15T13:55:23.137Z,11
2023-04-15T13:56:35.027Z,11
2023-04-15T13:57:47.312Z,11
2023-04-15T13:59:00.512Z,11
2023-04-15T14:00:13.493Z,11
2023-04-15T14:01:26.357Z,11
2023-04-15T14:02:39.452Z,11
2023-04-15T14:03:52.407Z,11
2023-04-15T14:05:05.332Z,11
2023-04-15T14:06:18.360Z,11
2023-04-15T14:07:31.345Z,11
2023-04-15T14:08:44.494Z,11
2023-04-15T14:09:57.372Z,11.1
2023-04-15T14:11:10.353Z,11.1
2023-04-15T14:12:23.369Z,11.1
2023-04-15T14:13:36.536Z,11.1
2023-04-15T14:14:49.076Z,11.1
2023-04-15T14:16:02.315Z,11.2
2023-04-15T14:17:15.542Z,11.2
2023-04-15T14:18:28.368Z,11.2
2023-04-15T14:19:41.391Z,11.2
2023-04-15T14:20:54.363Z,11.2
2023-04-15T14:22:07.329Z,11.2
2023-04-15T14:23:20.356Z,11.2
2023-04-15T14:24:33.389Z,11.1
2023-04-15T14:25:48.132Z,11.1
2023-04-15T14:26:59.928Z,11.1
2023-04-15T14:28:12.320Z,11.1
2023-04-15T14:29:25.368Z,11.1
2023-04-15T14:30:38.425Z,11.1
2023-04-15T14:32:04.003Z,11.1
2023-04-15T14:33:04.469Z,11.1
2023-04-15T14:34:17.356Z,11.1
2023-04-15T14:35:30.372Z,11.1
2023-04-15T14:36:43.534Z,11.1
2023-04-15T14:37:56.597Z,11.1
2023-04-15T14:39:09.554Z,11.1
2023-04-15T14:40:22.390Z,11.1
2023-04-15T14:41:35.399Z,11.1
2023-04-15T14:42:48.341Z,11.1
2023-04-15T14:44:01.371Z,11
2023-04-15T14:45:14.320Z,11
2023-04-15T14:46:27.347Z,10.8
2023-04-15T14:47:40.563Z,10.8
2023-04-15T14:48:53.551Z,10.7
2023-04-15T14:50:06.358Z,10.7
2023-04-15T14:51:19.406Z,10.7
2023-04-15T14:52:32.316Z,10.7
2023-04-15T14:53:45.354Z,10.6
2023-04-15T14:54:58.381Z,10.6
2023-04-15T14:56:11.355Z,10.6
2023-04-15T14:57:24.381Z,10.6
2023-04-15T14:58:37.347Z,10.6
2023-04-15T14:59:50.386Z,10.4
2023-04-15T15:01:03.371Z,10.4
2023-04-15T15:02:26.447Z,10.4
2023-04-15T15:03:29.365Z,10.5
2023-04-15T15:04:42.437Z,10.6
2023-04-15T15:05:55.645Z,10.6
2023-04-15T15:07:08.512Z,10.6
2023-04-15T15:08:21.374Z,10.6
2023-04-15T15:09:35.239Z,10.6
2023-04-15T15:10:48.793Z,10.6
2023-04-15T15:12:00.296Z,10.6
2023-04-15T15:13:13.360Z,10.6
2023-04-15T15:14:26.036Z,10.5
2023-04-15T15:15:39.430Z,10.4
2023-04-15T15:16:52.388Z,10.4
2023-04-15T15:18:05.366Z,10.4
2023-04-15T15:19:18.381Z,10.4
2023-04-15T15:20:31.080Z,10.3
2023-04-15T15:21:44.415Z,10.3
2023-04-15T15:22:57.391Z,10.3
2023-04-15T15:24:10.622Z,10.3
2023-04-15T15:25:23.412Z,10.2
2023-04-15T15:26:36.383Z,10.2
2023-04-15T15:27:49.359Z,10.2
2023-04-15T15:29:02.488Z,10.1
2023-04-15T15:30:15.390Z,10.1
2023-04-15T15:31:28.413Z,10
2023-04-15T15:32:41.399Z,9.9
2023-04-15T15:33:54.552Z,9.9
2023-04-15T15:35:07.224Z,9.7
2023-04-15T15:36:20.474Z,9.7
2023-04-15T15:37:33.256Z,9.7
2023-04-15T15:38:46.273Z,9.7
2023-04-15T15:39:59.315Z,9.7
2023-04-15T15:41:12.565Z,9.7
2023-04-15T15:42:25.387Z,9.7
2023-04-15T15:43:38.264Z,9.7
2023-04-15T15:44:51.379Z,9.7
2023-04-15T15:46:04.396Z,9.8
2023-04-15T15:47:17.370Z,9.8
2023-04-15T15:48:30.387Z,9.8
2023-04-15T15:49:43.415Z,9.8
2023-04-15T15:50:56.388Z,9.7
2023-04-15T15:52:09.393Z,9.7
2023-04-15T15:53:22.556Z,9.7
2023-04-15T15:54:35.462Z,9.7
2023-04-15T15:55:48.445Z,9.7
2023-04-15T15:57:01.397Z,9.7
2023-04-15T15:58:14.396Z,9.7
2023-04-15T15:59:27.393Z,9.7
2023-04-15T16:00:40.435Z,9.7
2023-04-15T16:01:53.441Z,9.7
2023-04-15T16:03:07.800Z,9.8
2023-04-15T16:04:19.598Z,9.8
2023-04-15T16:05:32.054Z,9.7
2023-04-15T16:06:45.265Z,9.7
2023-04-15T16:07:58.888Z,9.8
2023-04-15T16:09:11.489Z,9.8
2023-04-15T16:10:24.434Z,9.8
2023-04-15T16:11:37.569Z,9.7
2023-04-15T16:12:50.401Z,9.7
2023-04-15T16:14:03.408Z,9.7
2023-04-15T16:15:16.397Z,9.7
2023-04-15T16:16:29.416Z,9.7
2023-04-15T16:17:42.373Z,9.7
2023-04-15T16:18:55.585Z,9.7
2023-04-15T16:20:08.393Z,9.7
2023-04-15T16:21:21.589Z,9.7
2023-04-15T16:22:34.403Z,9.7
2023-04-15T16:23:47.405Z,9.7
2023-04-15T16:25:00.757Z,9.7
2023-04-15T16:26:13.602Z,9.7
2023-04-15T16:27:26.261Z,9.7
2023-04-15T16:28:40.416Z,9.7
2023-04-15T16:29:52.371Z,9.7
2023-04-15T16:31:05.610Z,9.7
2023-04-15T16:32:18.475Z,9.7
2023-04-15T16:33:31.243Z,9.7